Extended Streamflow Prediction
Issued by NWS Lower Mississippi RFC

Current Version | Previous Version | Graphics & Text | Print | Product List | Glossary On
Versions: 1 2 3 4 5 6 7 8 9 10 11 12 13 14 15 16 17 18 19 20 21 22 23 24 25 26 27 28 29 30 31 32 33 34 35 36 37 38 39 40 41 42 43 44 45 46 47 48 49 50
440
FGUS64 KORN 201539
ESPORN

EXTENDED STREAMFLOW PREDICTION
NATIONAL WEATHER SERVICE RIVER FORECAST CENTER, SLIDELL, LA
1038 AM CDT FRI APR 20 2018

   DATE   CPGM7 CIRI2 NMDM7 TPTT1 CRTM7 OSGA4 MEMT1 TRPM6 HEEA4
04-21-18   23.7  41.6  30.0  32.4  30.3  27.1  27.9  39.9  37.4
04-22-18   23.8  41.7  29.8  31.9  29.7  26.2  26.9  39.2  37.0
04-23-18   24.1  42.1  30.0  32.0  29.6  25.6  26.1  38.3  36.0
04-24-18   24.3  42.3  30.4  32.4  29.9  25.6  25.7  37.7  35.3
04-25-18   24.5  41.9  30.4  32.6  30.1  26.0  25.9  37.6  35.0
04-26-18   24.7  41.3  29.9  32.3  30.1  26.2  26.3  37.9  35.1
04-27-18   24.9  40.8  29.3  31.7  29.6  26.0  26.4  38.2  35.5
04-28-18   25.0  39.8  28.7  31.3  29.1  25.4  25.9  38.1  35.6
04-29-18   24.9  37.2  27.3  30.4  28.5  24.9  25.3  37.5  35.2
04-30-18   24.6  34.3  24.4  28.3  27.0  24.0  24.8  37.0  34.6
05-01-18   24.3  31.9  21.9  25.6  24.4  22.1  23.7  36.3  34.1
05-02-18   24.1  30.7  20.1  23.4  22.2  19.3  21.3  34.6  33.2
05-03-18   24.0  30.0  19.1  22.2  20.7  17.1  18.8  32.1  31.1
05-04-18   24.0  29.4  18.5  21.5  19.9  15.7  16.9  30.1  28.9
05-05-18   24.0  29.0  18.0  21.0  19.3  15.0  15.9  28.7  27.1
05-06-18   24.0  28.6  17.6  20.5  18.9  14.5  15.3  27.9  26.2
05-07-18   23.9  28.2  17.2  20.2  18.5  14.1  14.8  27.5  25.7
05-08-18   24.0  27.9  16.9  19.9  18.2  13.9  14.6  27.1  25.3
05-09-18   24.1  27.7  16.6  19.6  17.9  13.7  14.4  27.0  25.0
05-10-18   24.2  27.5  16.4  19.4  17.7  13.6  14.3  26.8  24.9
05-11-18   24.2  27.3  16.2  19.2  17.5  13.5  14.1  26.7  24.8
05-12-18   24.2  27.2  16.1  19.0  17.3  13.4  14.0  26.6  24.6
05-13-18   24.2  27.0  15.9  18.8  17.2  13.2  13.8  26.4  24.5
05-14-18   24.3  26.9  15.8  18.7  17.0  13.1  13.7  26.4  24.4
05-15-18   24.3  26.8  15.6  18.5  16.9  13.0  13.6  26.3  24.4
05-16-18   24.3  26.6  15.5  18.3  16.7  12.9  13.6  26.2  24.3
05-17-18   24.2  26.5  15.4  18.2  16.6  12.8  13.5  26.2  24.2
05-18-18   24.1  26.4  15.3  18.0  16.4  12.8  13.5  26.2  24.2

   DATE   ARSA4 GEEM6 VCKM6 NTZM6 RRLL1 BTRL1 DONL1 RRVL1 NORL1
04-21-18   34.2  46.1  43.0  50.8  54.3  37.1  26.7  20.3  14.4
04-22-18   34.0  46.0  43.0  50.8  54.3  37.2  26.7  20.3  14.4
04-23-18   33.7  45.7  42.9  50.8  54.3  37.2  26.7  20.4  14.4
04-24-18   33.0  45.3  42.7  50.7  54.3  37.1  26.7  20.3  14.4
04-25-18   32.2  44.5  42.3  50.5  54.2  37.1  26.7  20.3  14.4
04-26-18   31.6  43.8  41.7  50.1  54.0  37.1  26.6  20.3  14.4
04-27-18   31.6  43.6  40.9  49.4  53.7  37.0  26.5  20.3  14.3
04-28-18   31.8  43.7  40.6  48.8  53.1  36.7  26.2  20.1  14.3
04-29-18   32.1  44.0  40.6  48.4  52.5  36.3  25.8  19.9  14.2
04-30-18   32.0  44.1  40.9  48.4  52.1  35.7  25.4  19.6  14.0
05-01-18   31.4  43.7  41.1  48.7  52.1  35.1  25.2  19.4  13.8
05-02-18   31.0  43.2  40.8  48.9  52.4  35.0  25.2  19.3  13.7
05-03-18   30.4  42.8  40.4  48.7  52.5  35.2  25.4  19.4  13.7
05-04-18   29.0  42.1  40.0  48.4  52.4  35.4  25.5  19.5  13.8
05-05-18   26.7  40.0  39.4  48.1  52.1  35.4  25.4  19.5  13.8
05-06-18   25.0  38.0  38.1  47.5  51.8  35.2  25.2  19.4  13.8
05-07-18   24.3  37.2  37.4  46.7  51.2  34.9  25.1  19.3  13.6
05-08-18   23.9  36.8  37.1  46.4  50.8  34.6  24.8  19.1  13.6
05-09-18   23.7  36.6  37.0  46.2  50.6  34.2  24.6  18.9  13.5
05-10-18   23.6  36.5  36.9  46.1  50.5  34.1  24.6  18.9  13.4
05-11-18   23.4  36.3  36.8  46.1  50.4  34.0  24.6  18.9  13.4
05-12-18   23.3  36.2  36.7  45.9  50.4  34.0  24.5  18.8  13.4
05-13-18   23.2  36.2  36.6  45.9  50.3  33.9  24.5  18.8  13.3
05-14-18   23.1  36.1  36.5  45.8  50.3  33.9  24.4  18.8  13.3
05-15-18   23.0  36.1  36.5  45.7  50.2  33.8  24.4  18.8  13.3
05-16-18   22.9  36.0  36.4  45.7  50.2  33.8  24.4  18.8  13.3
05-17-18   22.9  36.0  36.4  45.6  50.2  33.7  24.4  18.8  13.3
05-18-18   22.8  36.0  36.4  45.6  50.2  33.7  24.4  18.8  13.3

NOTE: STAGE FORECASTS ARE BASED ON FUTURE RAINFALL COVERING
THE NEXT 48 HOURS.

END ORN


$$





USA.gov is the U.S. government's official web portal to all federal, state and local government web resources and services.